createdAt,value
2018-03-04T00:01:09.309Z,98163.61
2018-03-04T00:03:39.021Z,98172.72
2018-03-04T00:06:08.686Z,98171.87
2018-03-04T00:08:38.508Z,98164.40
2018-03-04T00:11:08.221Z,98167.53
2018-03-04T00:13:38.856Z,98161.88
2018-03-04T00:16:08.902Z,98162.22
2018-03-04T00:18:38.378Z,98164.37
2018-03-04T00:21:08.037Z,98154.91
2018-03-04T00:23:37.900Z,98161.22
2018-03-04T00:26:08.544Z,98150.83
2018-03-04T00:28:38.566Z,98157.23
2018-03-04T00:31:09.200Z,98160.69
2018-03-04T00:33:38.833Z,98160.50
2018-03-04T00:36:08.815Z,98156.33
2018-03-04T00:38:39.954Z,98160.93
2018-03-04T00:41:09.603Z,98159.83
2018-03-04T00:43:39.444Z,98159.97
2018-03-04T00:46:09.914Z,98154.93
2018-03-04T00:48:39.451Z,98160.29
2018-03-04T00:51:09.402Z,98157.83
2018-03-04T00:53:39.530Z,98157.84
2018-03-04T00:56:10.249Z,98129.92
2018-03-04T00:58:41.740Z,98151.71
2018-03-04T01:01:12.176Z,98156.22
2018-03-04T01:03:42.208Z,98151.45
2018-03-04T01:06:12.257Z,98161.16
2018-03-04T01:08:42.946Z,98158.55
2018-03-04T01:11:13.543Z,98151.10
2018-03-04T01:13:44.470Z,98148.94
2018-03-04T01:16:15.144Z,98154.47
2018-03-04T01:18:44.847Z,98146.06
2018-03-04T01:21:15.754Z,98144.23
2018-03-04T01:23:46.853Z,98144.56
2018-03-04T01:26:17.405Z,98146.70
2018-03-04T01:28:47.078Z,98142.47
2018-03-04T01:31:17.194Z,98147.58
2018-03-04T01:33:47.950Z,98144.38
2018-03-04T01:36:18.345Z,98141.26
2018-03-04T01:38:48.817Z,98136.14
2018-03-04T01:41:18.807Z,98140.85
2018-03-04T01:43:50.440Z,98148.08
2018-03-04T01:46:20.906Z,98145.61
2018-03-04T01:48:50.876Z,98142.95
2018-03-04T01:51:20.829Z,98134.21
2018-03-04T01:53:50.653Z,98148.17
2018-03-04T01:56:20.396Z,98152.66
2018-03-04T01:58:50.777Z,98151.85
2018-03-04T02:01:21.793Z,98145.66
2018-03-04T02:03:51.629Z,98144.47
2018-03-04T02:06:21.720Z,98136.87
2018-03-04T02:08:52.458Z,98158.41
2018-03-04T02:11:22.093Z,98149.74
2018-03-04T02:13:52.932Z,98147.83
2018-03-04T02:16:23.023Z,98143.66
2018-03-04T02:18:52.839Z,98147.39
2018-03-04T02:21:22.806Z,98120.63
2018-03-04T02:23:52.780Z,98152.06
2018-03-04T02:26:22.437Z,98142.97
2018-03-04T02:28:53.381Z,98143.32
2018-03-04T02:31:23.342Z,98130.48
2018-03-04T02:33:53.028Z,98135.88
2018-03-04T02:36:23.147Z,98123.80
2018-03-04T02:38:53.185Z,98131.46
2018-03-04T02:41:23.017Z,98132.16
2018-03-04T02:43:53.090Z,98136.36
2018-03-04T02:46:23.869Z,98125.84
2018-03-04T02:48:54.134Z,98123.67
2018-03-04T02:51:24.442Z,98120.56
2018-03-04T02:53:54.680Z,98126.91
2018-03-04T02:56:24.417Z,98118.53
2018-03-04T02:58:54.813Z,98118.27
2018-03-04T03:01:24.577Z,98117.67
2018-03-04T03:03:54.368Z,98124.27
2018-03-04T03:06:24.507Z,98125.25
2018-03-04T03:08:54.514Z,98121.34
2018-03-04T03:11:25.643Z,98121.38
2018-03-04T03:13:55.637Z,98116.23
2018-03-04T03:16:25.592Z,98119.58
2018-03-04T03:18:55.238Z,98124.28
2018-03-04T03:21:25.552Z,98118.75
2018-03-04T03:23:55.094Z,98109.83
2018-03-04T03:26:25.029Z,98106.73
2018-03-04T03:28:55.634Z,98100.30
2018-03-04T03:31:25.598Z,98098.50
2018-03-04T03:33:55.422Z,98102.58
2018-03-04T03:36:25.591Z,98096.80
2018-03-04T03:38:55.447Z,98100.42
2018-03-04T03:41:25.448Z,98101.38
2018-03-04T03:43:55.585Z,98104.92
2018-03-04T03:46:25.573Z,98097.39
2018-03-04T03:48:56.423Z,98097.27
2018-03-04T03:51:26.734Z,98098.77
2018-03-04T03:53:56.642Z,98095.28
2018-03-04T03:56:26.388Z,98097.80
2018-03-04T03:58:56.948Z,98078.02
2018-03-04T04:01:26.476Z,98090.98
2018-03-04T04:03:56.451Z,98097.61
2018-03-04T04:06:26.405Z,98074.52
2018-03-04T04:08:56.261Z,98078.48
2018-03-04T04:11:26.126Z,98089.11
2018-03-04T04:13:57.757Z,98083.37
2018-03-04T04:16:28.060Z,98081.09
2018-03-04T04:18:58.351Z,98066.64
2018-03-04T04:21:29.459Z,98085.56
2018-03-04T04:23:59.185Z,98076.06
2018-03-04T04:26:29.842Z,98085.47
2018-03-04T04:29:03.098Z,98085.27
2018-03-04T04:31:33.555Z,98079.19
2018-03-04T04:34:04.053Z,98078.55
2018-03-04T04:36:34.545Z,98078.84
2018-03-04T04:39:06.453Z,98080.63
2018-03-04T04:41:36.389Z,98082.33
2018-03-04T04:44:06.156Z,98072.98
2018-03-04T04:46:36.859Z,98070.41
2018-03-04T04:49:06.772Z,98063.06
2018-03-04T04:51:36.679Z,98068.51
2018-03-04T04:54:06.563Z,98070.83
2018-03-04T04:56:36.886Z,98066.91
2018-03-04T04:59:07.156Z,98071.20
2018-03-04T05:01:37.316Z,98063.09
2018-03-04T05:04:06.905Z,98065.16
2018-03-04T05:06:36.939Z,98066.42
2018-03-04T05:09:07.147Z,98073.59
2018-03-04T05:11:36.982Z,98056.33
2018-03-04T05:14:09.647Z,98063.33
2018-03-04T05:16:39.861Z,98061.73
2018-03-04T05:19:10.691Z,98034.14
2018-03-04T05:21:40.811Z,98057.87
2018-03-04T05:24:11.566Z,98054.69
2018-03-04T05:26:42.685Z,98061.12
2018-03-04T05:29:12.685Z,98054.82
2018-03-04T05:31:43.086Z,98038.30
2018-03-04T05:34:12.981Z,98056.64
2018-03-04T05:36:43.530Z,98042.34
2018-03-04T05:39:13.689Z,98055.84
2018-03-04T05:41:44.597Z,98060.09
2018-03-04T05:44:14.314Z,98062.69
2018-03-04T05:46:44.337Z,98043.90
2018-03-04T05:49:13.975Z,98051.94
2018-03-04T05:51:44.524Z,98046.20
2018-03-04T05:54:14.480Z,98043.48
2018-03-04T05:56:44.280Z,98024.70
2018-03-04T05:59:15.659Z,98034.02
2018-03-04T06:01:45.500Z,98037.72
2018-03-04T06:04:15.229Z,98018.63
2018-03-04T06:06:45.337Z,98033.23
2018-03-04T06:09:15.381Z,98044.11
2018-03-04T06:11:45.345Z,98039.17
2018-03-04T06:14:15.258Z,98048.38
2018-03-04T06:16:48.703Z,98052.42
2018-03-04T06:19:18.905Z,98046.89
2018-03-04T06:21:49.409Z,98045.77
2018-03-04T06:24:20.551Z,98043.34
2018-03-04T06:26:52.214Z,98052.62
2018-03-04T06:29:22.207Z,98050.64
2018-03-04T06:31:52.119Z,98048.63
2018-03-04T06:34:22.544Z,98051.44
2018-03-04T06:36:53.152Z,98041.48
2018-03-04T06:39:23.254Z,98048.95
2018-03-04T06:41:54.006Z,98043.97
2018-03-04T06:44:23.625Z,98043.25
2018-03-04T06:46:54.595Z,98019.09
2018-03-04T06:49:24.380Z,98044.84
2018-03-04T06:51:55.521Z,98027.34
2018-03-04T06:54:25.738Z,98040.43
2018-03-04T06:56:56.350Z,98044.74
2018-03-04T06:59:26.836Z,98014.46
2018-03-04T07:01:56.797Z,98042.61
2018-03-04T07:04:26.807Z,98037.45
2018-03-04T07:06:57.599Z,98046.77
2018-03-04T07:09:27.735Z,98047.44
2018-03-04T07:11:59.014Z,98049.12
2018-03-04T07:14:30.531Z,98053.27
2018-03-04T07:17:03.580Z,98054.09
2018-03-04T07:19:33.738Z,98062.05
2018-03-04T07:22:06.290Z,98065.80
2018-03-04T07:24:37.730Z,98055.55
2018-03-04T07:27:07.196Z,98061.95
2018-03-04T07:29:36.687Z,98046.33
2018-03-04T07:32:07.483Z,98045.17
2018-03-04T07:34:37.831Z,98043.40
2018-03-04T07:37:08.384Z,98035.28
2018-03-04T07:39:40.653Z,98031.92
2018-03-04T07:42:10.661Z,98034.67
2018-03-04T07:44:40.761Z,98039.26
2018-03-04T07:47:10.812Z,98037.36
2018-03-04T07:49:40.543Z,98046.19
2018-03-04T07:52:10.031Z,98039.76
2018-03-04T07:54:42.227Z,98025.63
2018-03-04T07:57:12.558Z,98039.31
2018-03-04T07:59:42.011Z,98030.73
2018-03-04T08:02:12.893Z,98022.02
2018-03-04T08:04:43.127Z,98007.11
2018-03-04T08:07:12.788Z,98023.24
2018-03-04T08:09:42.721Z,98030.41
2018-03-04T08:12:12.533Z,98025.94
2018-03-04T08:14:43.577Z,98028.39
2018-03-04T08:17:14.142Z,98033.92
2018-03-04T08:19:44.923Z,98022.62
2018-03-04T08:22:14.469Z,98031.71
2018-03-04T08:24:53.328Z,98025.90
2018-03-04T08:29:32.920Z,98018.51
2018-03-04T08:32:05.437Z,98032.75
2018-03-04T08:34:36.464Z,98020.59
2018-03-04T08:37:06.567Z,98019.80
2018-03-04T08:39:37.307Z,98017.26
2018-03-04T08:42:08.217Z,97996.06
2018-03-04T08:44:38.295Z,97997.67
2018-03-04T08:47:12.243Z,98005.74
2018-03-04T08:49:42.622Z,97988.53
2018-03-04T08:52:14.725Z,98012.55
2018-03-04T08:54:44.531Z,98012.02
2018-03-04T08:57:14.799Z,98017.00
2018-03-04T08:59:45.420Z,98009.24
2018-03-04T09:02:14.895Z,98009.64
2018-03-04T09:04:45.695Z,98014.72
2018-03-04T09:07:17.938Z,97960.19
2018-03-04T09:09:47.412Z,98013.73
2018-03-04T09:12:17.760Z,98018.50
2018-03-04T09:14:47.661Z,98018.78
2018-03-04T09:17:20.427Z,98013.30
2018-03-04T09:19:51.471Z,97975.47
2018-03-04T09:22:22.220Z,98014.78
2018-03-04T09:24:52.007Z,98022.08
2018-03-04T09:27:22.231Z,98010.19
2018-03-04T09:29:52.482Z,98009.84
2018-03-04T09:32:22.077Z,98010.53
2018-03-04T09:34:52.416Z,98006.23
2018-03-04T09:37:21.941Z,97995.52
2018-03-04T09:39:51.628Z,98002.89
2018-03-04T09:42:21.551Z,98005.62
2018-03-04T09:44:51.679Z,97996.80
2018-03-04T09:47:21.228Z,98002.41
2018-03-04T09:49:51.572Z,97980.59
2018-03-04T09:52:21.214Z,97979.25
2018-03-04T09:54:51.002Z,97989.06
2018-03-04T09:57:20.870Z,97984.05
2018-03-04T09:59:50.320Z,97990.25
2018-03-04T10:02:19.870Z,97983.16
2018-03-04T10:04:49.684Z,97985.28
2018-03-04T10:07:19.290Z,97981.84
2018-03-04T10:09:48.797Z,97983.13
2018-03-04T10:12:19.013Z,97986.46
2018-03-04T10:14:49.330Z,97980.87
2018-03-04T10:17:19.466Z,97976.23
2018-03-04T10:19:49.516Z,97981.13
2018-03-04T10:22:19.605Z,97977.45
2018-03-04T10:24:49.673Z,97983.08
2018-03-04T10:27:19.643Z,97967.05
2018-03-04T10:29:49.665Z,97970.21
2018-03-04T10:32:19.372Z,97966.05
2018-03-04T10:34:50.304Z,97963.69
2018-03-04T10:37:19.838Z,97961.39
2018-03-04T10:39:50.054Z,97960.43
2018-03-04T10:42:19.940Z,97953.23
2018-03-04T10:44:50.942Z,97955.66
2018-03-04T10:47:20.836Z,97949.74
2018-03-04T10:49:51.986Z,97961.79
2018-03-04T10:52:22.343Z,97957.19
2018-03-04T10:54:52.691Z,97966.00
2018-03-04T10:57:22.515Z,97970.02
2018-03-04T10:59:54.053Z,97974.73
2018-03-04T11:02:23.914Z,97966.03
2018-03-04T11:04:53.520Z,97945.41
2018-03-04T11:07:24.093Z,97940.09
2018-03-04T11:09:54.343Z,97946.20
2018-03-04T11:12:24.025Z,97946.08
2018-03-04T11:14:53.725Z,97935.34
2018-03-04T11:17:23.231Z,97941.39
2018-03-04T11:19:52.632Z,97935.22
2018-03-04T11:22:23.521Z,97930.39
2018-03-04T11:24:53.316Z,97932.33
2018-03-04T11:27:23.273Z,97910.34
2018-03-04T11:29:53.090Z,97940.97
2018-03-04T11:32:23.467Z,97926.78
2018-03-04T11:34:53.316Z,97935.91
2018-03-04T11:37:23.527Z,97921.17
2018-03-04T11:39:55.432Z,97929.72
2018-03-04T11:42:25.886Z,97921.64
2018-03-04T11:44:55.680Z,97926.83
2018-03-04T11:47:25.895Z,97912.95
2018-03-04T11:49:55.512Z,97910.75
2018-03-04T11:52:25.350Z,97898.14
2018-03-04T11:54:54.812Z,97909.54
2018-03-04T11:57:24.408Z,97899.38
2018-03-04T11:59:53.869Z,97894.88
2018-03-04T12:02:23.400Z,97895.33
2018-03-04T12:04:53.134Z,97910.91
2018-03-04T12:07:22.868Z,97904.57
2018-03-04T12:09:52.324Z,97894.77
2018-03-04T12:12:21.764Z,97888.34
2018-03-04T12:14:52.561Z,97877.82
2018-03-04T12:17:22.437Z,97887.12
2018-03-04T12:19:52.494Z,97887.70
2018-03-04T12:22:22.169Z,97875.59
2018-03-04T12:24:52.565Z,97880.28
2018-03-04T12:27:22.228Z,97876.83
2018-03-04T12:29:51.673Z,97861.12
2018-03-04T12:32:21.329Z,97845.62
2018-03-04T12:34:51.706Z,97843.21
2018-03-04T12:37:21.258Z,97839.48
2018-03-04T12:39:51.458Z,97836.87
2018-03-04T12:42:20.937Z,97841.89
2018-03-04T12:44:50.709Z,97840.16
2018-03-04T12:47:20.191Z,97851.78
2018-03-04T12:49:50.723Z,97848.33
2018-03-04T12:52:21.545Z,97850.50
2018-03-04T12:54:51.187Z,97850.47
2018-03-04T12:57:22.255Z,97836.73
2018-03-04T12:59:52.494Z,97825.17
2018-03-04T13:02:22.498Z,97836.64
2018-03-04T13:04:52.973Z,97833.88
2018-03-04T13:07:22.969Z,97825.80
2018-03-04T13:09:53.395Z,97816.69
2018-03-04T13:12:25.722Z,97806.01
2018-03-04T13:14:56.072Z,97829.01
2018-03-04T13:17:26.726Z,97842.98
2018-03-04T13:19:56.311Z,97836.08
2018-03-04T13:22:26.467Z,97831.68
2018-03-04T13:24:56.314Z,97838.86
2018-03-04T13:27:26.439Z,97830.05
2018-03-04T13:29:56.212Z,97834.37
2018-03-04T13:32:25.819Z,97830.28
2018-03-04T13:34:55.904Z,97825.96
2018-03-04T13:37:25.542Z,97805.77
2018-03-04T13:39:54.979Z,97818.15
2018-03-04T13:42:24.620Z,97823.06
2018-03-04T13:44:54.631Z,97821.95
2018-03-04T13:47:24.217Z,97806.13
2018-03-04T13:49:53.813Z,97798.27
2018-03-04T13:52:23.329Z,97793.64
2018-03-04T13:54:52.826Z,97782.83
2018-03-04T13:57:22.236Z,97797.50
2018-03-04T13:59:51.971Z,97788.63
2018-03-04T14:02:21.400Z,97789.17
2018-03-04T14:04:51.159Z,97783.45
2018-03-04T14:07:21.090Z,97772.77
2018-03-04T14:09:50.576Z,97782.42
2018-03-04T14:12:20.200Z,97778.42
2018-03-04T14:14:49.776Z,97777.52
2018-03-04T14:17:19.965Z,97762.63
2018-03-04T14:19:49.826Z,97783.03
2018-03-04T14:22:19.562Z,97776.61
2018-03-04T14:24:49.484Z,97775.00
2018-03-04T14:27:19.365Z,97776.30
2018-03-04T14:29:49.286Z,97770.80
2018-03-04T14:32:18.871Z,97757.53
2018-03-04T14:34:49.350Z,97758.53
2018-03-04T14:37:19.213Z,97759.25
2018-03-04T14:39:49.135Z,97755.11
2018-03-04T14:42:18.905Z,97723.19
2018-03-04T14:44:48.412Z,97748.27
2018-03-04T14:47:18.317Z,97737.67
2018-03-04T14:49:47.716Z,97739.73
2018-03-04T14:52:17.156Z,97739.28
2018-03-04T14:54:48.001Z,97740.59
2018-03-04T14:57:17.476Z,97706.30
2018-03-04T14:59:47.646Z,97718.50
2018-03-04T15:02:17.505Z,97685.99
2018-03-04T15:04:48.027Z,97718.27
2018-03-04T15:07:17.720Z,97719.02
2018-03-04T15:09:47.629Z,97720.83
2018-03-04T15:12:17.121Z,97713.72
2018-03-04T15:14:46.785Z,97713.86
2018-03-04T15:17:17.224Z,97708.99
2018-03-04T15:19:47.280Z,97687.41
2018-03-04T15:22:17.796Z,97716.08
2018-03-04T15:24:48.269Z,97709.15
2018-03-04T15:27:18.141Z,97703.10
2018-03-04T15:29:47.809Z,97702.48
2018-03-04T15:32:17.691Z,97691.09
2018-03-04T15:34:48.218Z,97705.82
2018-03-04T15:37:18.867Z,97707.53
2018-03-04T15:39:48.900Z,97712.11
2018-03-04T15:43:21.780Z,97685.83
2018-03-04T15:45:52.440Z,97704.70
2018-03-04T15:48:22.080Z,97696.27
2018-03-04T15:50:52.867Z,97696.20
2018-03-04T15:53:22.663Z,97689.72
2018-03-04T15:55:52.267Z,97694.74
2018-03-04T15:58:21.860Z,97692.78
2018-03-04T16:00:52.849Z,97700.67
2018-03-04T16:03:22.378Z,97697.02
2018-03-04T16:05:51.948Z,97700.03
2018-03-04T16:08:23.568Z,97695.64
2018-03-04T16:10:54.130Z,97665.09
2018-03-04T16:13:28.996Z,97674.12
2018-03-04T16:15:59.254Z,97700.66
2018-03-04T16:18:28.995Z,97674.61
2018-03-04T16:20:58.542Z,97690.67
2018-03-04T16:23:28.535Z,97699.00
2018-03-04T16:25:58.045Z,97692.27
2018-03-04T16:28:30.811Z,97675.83
2018-03-04T16:31:01.293Z,97695.80
2018-03-04T16:33:30.879Z,97699.41
2018-03-04T16:36:00.383Z,97696.88
2018-03-04T16:38:30.009Z,97691.64
2018-03-04T16:41:00.152Z,97692.23
2018-03-04T16:43:29.681Z,97693.48
2018-03-04T16:46:00.550Z,97691.53
2018-03-04T16:48:30.225Z,97689.26
2018-03-04T16:51:00.241Z,97687.92
2018-03-04T16:53:29.788Z,97690.48
2018-03-04T16:55:59.243Z,97688.16
2018-03-04T16:58:28.806Z,97685.77
2018-03-04T17:00:59.758Z,97699.59
2018-03-04T17:03:29.249Z,97685.77
2018-03-04T17:05:58.705Z,97683.69
2018-03-04T17:08:29.290Z,97690.70
2018-03-04T17:10:59.785Z,97689.05
2018-03-04T17:13:29.259Z,97684.33
2018-03-04T17:16:00.280Z,97686.14
2018-03-04T17:18:29.713Z,97677.66
2018-03-04T17:20:59.444Z,97669.34
2018-03-04T17:23:28.929Z,97670.56
2018-03-04T17:25:59.037Z,97672.30
2018-03-04T17:28:28.464Z,97666.02
2018-03-04T17:30:58.353Z,97664.16
2018-03-04T17:33:27.874Z,97658.34
2018-03-04T17:35:57.337Z,97650.02
2018-03-04T17:38:26.804Z,97644.89
2018-03-04T17:40:56.408Z,97657.27
2018-03-04T17:43:26.137Z,97631.84
2018-03-04T17:45:55.876Z,97655.64
2018-03-04T17:48:25.439Z,97650.52
2018-03-04T17:50:54.893Z,97643.63
2018-03-04T17:53:24.771Z,97603.95
2018-03-04T17:55:54.213Z,97641.83
2018-03-04T17:58:24.309Z,97636.49
2018-03-04T18:00:54.191Z,97632.05
2018-03-04T18:03:23.780Z,97628.87
2018-03-04T18:05:53.353Z,97627.89
2018-03-04T18:08:23.204Z,97619.05
2018-03-04T18:10:52.621Z,97632.36
2018-03-04T18:13:22.326Z,97637.75
2018-03-04T18:15:52.192Z,97641.19
2018-03-04T18:18:21.774Z,97636.78
2018-03-04T18:20:51.290Z,97632.99
2018-03-04T18:23:21.401Z,97622.56
2018-03-04T18:25:51.017Z,97630.89
2018-03-04T18:28:20.902Z,97631.13
2018-03-04T18:30:50.742Z,97625.03
2018-03-04T18:33:21.266Z,97632.27
2018-03-04T18:35:50.773Z,97635.66
2018-03-04T18:38:20.691Z,97644.19
2018-03-04T18:40:50.232Z,97645.17
2018-03-04T18:43:19.921Z,97655.53
2018-03-04T18:45:49.868Z,97648.92
2018-03-04T18:48:19.360Z,97644.67
2018-03-04T18:50:49.626Z,97641.38
2018-03-04T18:53:19.849Z,97637.55
2018-03-04T18:55:50.761Z,97642.78
2018-03-04T18:58:20.257Z,97639.93
2018-03-04T19:00:50.691Z,97641.48
2018-03-04T19:03:20.998Z,97641.12
2018-03-04T19:05:50.992Z,97644.95
2018-03-04T19:08:21.095Z,97641.66
2018-03-04T19:10:50.821Z,97630.07
2018-03-04T19:13:20.860Z,97634.32
2018-03-04T19:15:51.761Z,97641.66
2018-03-04T19:18:21.394Z,97639.64
2018-03-04T19:20:51.286Z,97637.15
2018-03-04T19:23:21.240Z,97626.93
2018-03-04T19:25:50.921Z,97628.88
2018-03-04T19:28:21.372Z,97625.13
2018-03-04T19:30:53.919Z,97630.27
2018-03-04T19:33:23.459Z,97633.83
2018-03-04T19:35:52.917Z,97631.78
2018-03-04T19:38:22.808Z,97639.14
2018-03-04T19:40:52.953Z,97632.03
2018-03-04T19:43:22.676Z,97629.94
2018-03-04T19:45:52.841Z,97629.07
2018-03-04T19:48:22.395Z,97627.48
2018-03-04T19:50:52.115Z,97632.42
2018-03-04T19:53:22.025Z,97626.03
2018-03-04T19:55:51.474Z,97628.56
2018-03-04T19:58:21.412Z,97628.27
2018-03-04T20:00:51.444Z,97613.75
2018-03-04T20:03:21.574Z,97616.19
2018-03-04T20:05:51.225Z,97610.94
2018-03-04T20:08:21.258Z,97620.04
2018-03-04T20:10:51.076Z,97617.48
2018-03-04T20:13:21.595Z,97603.38
2018-03-04T20:15:51.358Z,97603.25
2018-03-04T20:18:21.548Z,97595.56
2018-03-04T20:20:52.259Z,97592.56
2018-03-04T20:23:22.718Z,97587.91
2018-03-04T20:25:53.032Z,97587.58
2018-03-04T20:28:22.946Z,97589.89
2018-03-04T20:30:53.473Z,97580.83
2018-03-04T20:33:23.632Z,97584.47
2018-03-04T20:35:53.151Z,97579.07
2018-03-04T20:38:22.958Z,97585.36
2018-03-04T20:40:53.151Z,97581.73
2018-03-04T20:43:23.134Z,97586.17
2018-03-04T20:45:53.372Z,97588.66
2018-03-04T20:48:23.064Z,97592.16
2018-03-04T20:50:54.741Z,97585.73
2018-03-04T20:53:24.938Z,97592.78
2018-03-04T20:55:54.787Z,97594.27
2018-03-04T20:58:24.237Z,97592.45
2018-03-04T21:00:54.291Z,97587.83
2018-03-04T21:03:24.084Z,97596.47
2018-03-04T21:05:53.984Z,97604.95
2018-03-04T21:08:23.749Z,97610.55
2018-03-04T21:10:53.284Z,97605.67
2018-03-04T21:13:23.195Z,97599.24
2018-03-04T21:15:52.654Z,97593.86
2018-03-04T21:18:22.188Z,97593.47
2018-03-04T21:20:52.482Z,97595.16
2018-03-04T21:23:23.075Z,97609.17
2018-03-04T21:25:53.432Z,97603.29
2018-03-04T21:28:23.791Z,97594.16
2018-03-04T21:30:53.614Z,97586.86
2018-03-04T21:33:23.070Z,97591.66
2018-03-04T21:35:52.937Z,97602.28
2018-03-04T21:38:22.768Z,97599.06
2018-03-04T21:40:52.658Z,97601.66
2018-03-04T21:43:22.655Z,97608.37
2018-03-04T21:45:52.536Z,97612.64
2018-03-04T21:48:22.647Z,97596.07
2018-03-04T21:50:52.368Z,97605.37
2018-03-04T21:53:21.888Z,97588.06
2018-03-04T21:55:51.330Z,97610.45
2018-03-04T21:58:20.802Z,97601.56
2018-03-04T22:00:51.469Z,97597.34
2018-03-04T22:03:21.758Z,97587.38
2018-03-04T22:05:51.350Z,97590.77
2018-03-04T22:08:22.110Z,97593.75
2018-03-04T22:10:52.454Z,97592.20
2018-03-04T22:13:21.911Z,97592.77
2018-03-04T22:15:51.970Z,97578.59
2018-03-04T22:18:21.978Z,97595.25
2018-03-04T22:20:51.448Z,97595.42
2018-03-04T22:23:21.202Z,97591.73
2018-03-04T22:25:50.710Z,97591.95
2018-03-04T22:28:20.825Z,97587.21
2018-03-04T22:30:50.538Z,97589.92
2018-03-04T22:33:20.348Z,97604.16
2018-03-04T22:35:49.772Z,97581.09
2018-03-04T22:38:19.766Z,97576.31
2018-03-04T22:40:50.170Z,97591.52
2018-03-04T22:43:19.835Z,97599.63
2018-03-04T22:45:49.641Z,97595.97
2018-03-04T22:48:20.022Z,97596.09
2018-03-04T22:50:49.510Z,97606.02
2018-03-04T22:53:20.487Z,97606.78
2018-03-04T22:55:49.932Z,97605.91
2018-03-04T22:58:19.384Z,97607.33
2018-03-04T23:00:50.459Z,97607.27
2018-03-04T23:03:20.768Z,97611.08
2018-03-04T23:05:51.497Z,97610.44
2018-03-04T23:08:20.953Z,97602.39
2018-03-04T23:10:51.060Z,97607.80
2018-03-04T23:13:22.099Z,97608.50
2018-03-04T23:15:53.534Z,97609.23
2018-03-04T23:18:23.630Z,97606.13
2018-03-04T23:20:54.529Z,97595.34
2018-03-04T23:23:24.592Z,97606.25
2018-03-04T23:25:55.425Z,97603.78
2018-03-04T23:28:25.228Z,97605.95
2018-03-04T23:30:56.716Z,97601.80
2018-03-04T23:33:26.496Z,97605.45
2018-03-04T23:35:56.281Z,97597.94
2018-03-04T23:38:25.934Z,97592.50
2018-03-04T23:40:55.621Z,97584.63
2018-03-04T23:43:25.577Z,97574.51
2018-03-04T23:45:55.802Z,97572.90
2018-03-04T23:48:25.426Z,97566.34
2018-03-04T23:50:54.959Z,97570.74
2018-03-04T23:53:24.467Z,97557.16
2018-03-04T23:55:55.036Z,97551.55
2018-03-04T23:58:24.841Z,97557.05
